createdAt,value
2018-09-20T00:01:00.434Z,8.70
2018-09-20T00:03:27.800Z,8.90
2018-09-20T00:05:55.500Z,8.60
2018-09-20T00:08:22.997Z,9.07
2018-09-20T00:10:50.416Z,8.50
2018-09-20T00:13:17.726Z,9.03
2018-09-20T00:15:45.379Z,7.87
2018-09-20T00:18:12.723Z,8.00
2018-09-20T00:20:40.052Z,7.83
2018-09-20T00:23:07.998Z,7.97
2018-09-20T00:25:35.702Z,7.97
2018-09-20T00:28:03.275Z,7.67
2018-09-20T00:30:30.775Z,7.70
2018-09-20T00:32:58.488Z,8.53
2018-09-20T00:35:25.885Z,8.37
2018-09-20T00:37:53.203Z,7.37
2018-09-20T00:40:20.738Z,8.20
2018-09-20T00:42:48.277Z,7.90
2018-09-20T00:45:15.686Z,8.73
2018-09-20T00:47:43.230Z,7.40
2018-09-20T00:50:10.523Z,8.93
2018-09-20T00:52:37.848Z,7.83
2018-09-20T00:55:05.359Z,7.73
2018-09-20T00:57:32.727Z,8.40
2018-09-20T01:00:00.046Z,8.00
2018-09-20T01:02:27.664Z,8.10
2018-09-20T01:04:55.037Z,7.97
2018-09-20T01:07:22.404Z,8.27
2018-09-20T01:09:49.967Z,8.97
2018-09-20T01:12:17.302Z,7.73
2018-09-20T01:14:44.968Z,7.97
2018-09-20T01:17:12.444Z,7.97
2018-09-20T01:19:39.822Z,8.13
2018-09-20T01:22:07.266Z,8.90
2018-09-20T01:24:34.584Z,7.93
2018-09-20T01:27:02.821Z,8.30
2018-09-20T01:29:30.385Z,8.13
2018-09-20T01:31:57.894Z,8.93
2018-09-20T01:34:25.274Z,7.30
2018-09-20T01:36:53.001Z,8.07
2018-09-20T01:39:20.404Z,8.20
2018-09-20T01:41:47.757Z,8.87
2018-09-20T01:44:15.765Z,7.70
2018-09-20T01:46:43.135Z,8.93
2018-09-20T01:49:10.482Z,8.80
2018-09-20T01:51:38.195Z,9.63
2018-09-20T01:54:05.525Z,10.20
2018-09-20T01:56:33.124Z,10.50
2018-09-20T01:59:00.465Z,9.80
2018-09-20T02:01:27.779Z,9.80
2018-09-20T02:03:55.523Z,9.50
2018-09-20T02:06:23.823Z,8.70
2018-09-20T02:08:51.172Z,9.37
2018-09-20T02:11:18.804Z,8.53
2018-09-20T02:13:46.090Z,8.87
2018-09-20T02:16:13.427Z,9.30
2018-09-20T02:18:41.142Z,8.80
2018-09-20T02:21:08.648Z,9.17
2018-09-20T02:23:35.970Z,9.30
2018-09-20T02:26:03.330Z,8.93
2018-09-20T02:28:30.680Z,8.30
2018-09-20T02:30:58.032Z,9.03
2018-09-20T02:33:25.373Z,8.33
2018-09-20T02:35:52.668Z,8.57
2018-09-20T02:38:20.008Z,8.97
2018-09-20T02:40:47.983Z,9.07
2018-09-20T02:43:15.519Z,12.77
2018-09-20T02:45:43.025Z,9.17
2018-09-20T02:48:10.427Z,9.30
2018-09-20T02:50:37.899Z,8.40
2018-09-20T02:53:05.392Z,8.70
2018-09-20T02:55:32.902Z,8.47
2018-09-20T02:58:00.391Z,9.10
2018-09-20T03:00:27.846Z,9.10
2018-09-20T03:02:55.180Z,8.80
2018-09-20T03:05:22.559Z,9.60
2018-09-20T03:07:49.866Z,9.73
2018-09-20T03:10:17.216Z,8.10
2018-09-20T03:12:44.610Z,8.20
2018-09-20T03:15:11.958Z,9.70
2018-09-20T03:17:39.314Z,9.33
2018-09-20T03:20:06.731Z,9.20
2018-09-20T03:22:34.218Z,9.50
2018-09-20T03:25:01.619Z,9.20
2018-09-20T03:27:28.926Z,9.30
2018-09-20T03:29:56.281Z,9.70
2018-09-20T03:32:23.656Z,9.57
2018-09-20T03:34:50.986Z,9.70
2018-09-20T03:37:18.370Z,9.23
2018-09-20T03:39:45.808Z,9.03
2018-09-20T03:42:13.324Z,8.20
2018-09-20T03:44:40.659Z,9.60
2018-09-20T03:47:08.392Z,8.60
2018-09-20T03:49:35.758Z,9.20
2018-09-20T03:52:03.155Z,9.17
2018-09-20T03:54:30.631Z,9.67
2018-09-20T03:56:57.946Z,9.77
2018-09-20T03:59:25.290Z,9.13
2018-09-20T04:01:52.901Z,9.60
2018-09-20T04:04:20.303Z,8.80
2018-09-20T04:06:47.729Z,8.40
2018-09-20T04:09:15.190Z,9.17
2018-09-20T04:11:42.541Z,9.50
2018-09-20T04:14:09.895Z,9.20
2018-09-20T04:16:37.474Z,9.63
2018-09-20T04:19:05.037Z,8.87
2018-09-20T04:21:34.248Z,8.50
2018-09-20T04:24:02.910Z,9.13
2018-09-20T04:26:31.248Z,9.17
2018-09-20T04:28:59.047Z,9.17
2018-09-20T04:31:27.696Z,9.77
2018-09-20T04:33:55.101Z,9.47
2018-09-20T04:36:22.806Z,9.07
2018-09-20T04:38:50.394Z,9.30
2018-09-20T04:41:17.795Z,9.20
2018-09-20T04:43:45.240Z,9.03
2018-09-20T04:46:12.635Z,10.00
2018-09-20T04:48:40.045Z,9.80
2018-09-20T04:51:07.573Z,9.80
2018-09-20T04:53:35.051Z,10.00
2018-09-20T04:56:02.417Z,9.53
2018-09-20T04:58:29.837Z,9.43
2018-09-20T05:00:57.276Z,9.43
2018-09-20T05:03:25.923Z,9.70
2018-09-20T05:05:53.320Z,9.67
2018-09-20T05:08:20.779Z,9.20
2018-09-20T05:10:48.443Z,9.77
2018-09-20T05:13:16.358Z,10.13
2018-09-20T05:15:43.756Z,10.20
2018-09-20T05:18:11.297Z,10.23
2018-09-20T05:20:38.754Z,9.93
2018-09-20T05:23:06.738Z,10.00
2018-09-20T05:25:34.059Z,10.67
2018-09-20T05:28:01.379Z,9.90
2018-09-20T05:30:28.955Z,10.33
2018-09-20T05:32:56.332Z,10.17
2018-09-20T05:35:23.713Z,10.50
2018-09-20T05:37:51.101Z,11.10
2018-09-20T05:40:18.828Z,9.30
2018-09-20T05:42:46.275Z,10.60
2018-09-20T05:45:14.012Z,10.00
2018-09-20T05:47:41.517Z,10.10
2018-09-20T05:50:09.008Z,9.50
2018-09-20T05:52:36.542Z,9.57
2018-09-20T05:55:03.994Z,9.70
2018-09-20T05:57:31.461Z,9.83
2018-09-20T05:59:59.042Z,8.90
2018-09-20T06:02:27.082Z,9.70
2018-09-20T06:04:54.540Z,9.80
2018-09-20T06:07:22.098Z,9.20
2018-09-20T06:09:49.464Z,9.53
2018-09-20T06:12:17.089Z,9.33
2018-09-20T06:14:44.787Z,9.77
2018-09-20T06:17:12.992Z,10.27
2018-09-20T06:19:40.454Z,9.30
2018-09-20T06:22:08.297Z,9.73
2018-09-20T06:24:35.737Z,10.30
2018-09-20T06:27:03.454Z,9.10
2018-09-20T06:29:30.794Z,9.90
2018-09-20T06:31:58.194Z,9.70
2018-09-20T06:34:25.585Z,9.57
2018-09-20T06:36:52.954Z,9.97
2018-09-20T06:39:20.301Z,9.57
2018-09-20T06:41:48.761Z,9.67
2018-09-20T06:44:16.393Z,8.83
2018-09-20T06:46:44.148Z,8.60
2018-09-20T06:49:11.660Z,9.50
2018-09-20T06:51:39.784Z,9.97
2018-09-20T06:54:07.191Z,9.90
2018-09-20T06:56:34.645Z,10.10
2018-09-20T06:59:02.105Z,10.40
2018-09-20T07:01:30.552Z,10.80
2018-09-20T07:03:58.835Z,9.43
2018-09-20T07:06:26.252Z,11.80
2018-09-20T07:08:53.691Z,10.70
2018-09-20T07:11:21.133Z,9.10
2018-09-20T07:13:48.651Z,8.47
2018-09-20T07:16:16.072Z,10.13
2018-09-20T07:18:44.469Z,9.70
2018-09-20T07:21:12.476Z,8.63
2018-09-20T07:23:39.890Z,9.90
2018-09-20T07:26:08.050Z,8.70
2018-09-20T07:28:35.447Z,8.50
2018-09-20T07:31:03.201Z,7.47
2018-09-20T07:33:30.636Z,8.67
2018-09-20T07:35:58.026Z,8.80
2018-09-20T07:38:25.868Z,8.43
2018-09-20T07:40:53.366Z,8.50
2018-09-20T07:43:20.761Z,8.00
2018-09-20T07:45:48.161Z,7.37
2018-09-20T07:48:15.634Z,7.93
2018-09-20T07:50:43.511Z,8.30
2018-09-20T07:53:10.838Z,7.90
2018-09-20T07:55:38.205Z,7.70
2018-09-20T07:58:05.588Z,8.13
2018-09-20T08:00:32.989Z,7.10
2018-09-20T08:03:00.277Z,7.30
2018-09-20T08:05:27.654Z,7.03
2018-09-20T08:07:55.008Z,7.70
2018-09-20T08:10:22.591Z,6.60
2018-09-20T08:12:51.038Z,6.33
2018-09-20T08:15:18.318Z,6.63
2018-09-20T08:17:45.659Z,9.70
2018-09-20T08:20:13.038Z,7.23
2018-09-20T08:22:40.430Z,7.10
2018-09-20T08:25:07.880Z,6.47
2018-09-20T08:27:35.220Z,7.07
2018-09-20T08:30:02.601Z,5.73
2018-09-20T08:32:30.182Z,6.77
2018-09-20T08:34:57.666Z,7.93
2018-09-20T08:37:25.670Z,7.17
2018-09-20T08:39:53.034Z,6.53
2018-09-20T08:42:20.477Z,6.60
2018-09-20T08:44:47.925Z,6.60
2018-09-20T08:47:15.296Z,6.50
2018-09-20T08:49:42.690Z,6.60
2018-09-20T08:52:10.125Z,6.73
2018-09-20T08:54:37.711Z,6.20
2018-09-20T08:57:05.296Z,6.43
2018-09-20T08:59:32.611Z,5.80
2018-09-20T09:02:00.646Z,7.13
2018-09-20T09:04:28.388Z,6.97
2018-09-20T09:06:55.784Z,6.07
2018-09-20T09:09:23.189Z,5.83
2018-09-20T09:11:51.532Z,6.10
2018-09-20T09:14:18.849Z,5.60
2018-09-20T09:16:46.228Z,5.40
2018-09-20T09:19:14.580Z,6.30
2018-09-20T09:21:42.619Z,6.40
2018-09-20T09:24:10.029Z,5.83
2018-09-20T09:26:37.461Z,5.80
2018-09-20T09:29:04.924Z,5.97
2018-09-20T09:31:32.610Z,5.20
2018-09-20T09:34:00.092Z,5.70
2018-09-20T09:36:28.360Z,5.00
2018-09-20T09:38:55.905Z,5.33
2018-09-20T09:41:23.562Z,5.40
2018-09-20T09:43:51.066Z,4.97
2018-09-20T09:46:18.533Z,4.70
2018-09-20T09:48:46.109Z,4.23
2018-09-20T09:51:13.876Z,5.60
2018-09-20T09:53:41.460Z,4.67
2018-09-20T09:56:08.863Z,5.43
2018-09-20T09:58:36.256Z,4.93
2018-09-20T10:01:03.718Z,4.43
2018-09-20T10:03:31.186Z,4.57
2018-09-20T10:05:58.611Z,4.40
2018-09-20T10:08:26.065Z,4.60
2018-09-20T10:10:53.567Z,4.50
2018-09-20T10:13:21.571Z,4.77
2018-09-20T10:15:48.956Z,4.63
2018-09-20T10:18:19.491Z,4.83
2018-09-20T10:20:47.040Z,4.77
2018-09-20T10:23:14.490Z,4.73
2018-09-20T10:25:41.976Z,5.17
2018-09-20T10:28:09.870Z,5.03
2018-09-20T10:30:37.485Z,5.23
2018-09-20T10:33:05.031Z,4.90
2018-09-20T10:35:33.275Z,4.30
2018-09-20T10:38:00.641Z,4.53
2018-09-20T10:40:28.117Z,4.27
2018-09-20T10:42:55.569Z,4.73
2018-09-20T10:45:23.036Z,5.40
2018-09-20T10:47:50.721Z,4.83
2018-09-20T10:50:18.352Z,4.83
2018-09-20T10:52:45.815Z,5.10
2018-09-20T10:55:13.209Z,4.60
2018-09-20T10:57:40.951Z,4.20
2018-09-20T11:00:08.428Z,4.57
2018-09-20T11:02:35.872Z,4.90
2018-09-20T11:05:07.162Z,4.07
2018-09-20T11:07:34.564Z,4.87
2018-09-20T11:10:01.930Z,4.33
2018-09-20T11:12:29.343Z,4.30
2018-09-20T11:14:56.800Z,4.53
2018-09-20T11:17:24.200Z,5.23
2018-09-20T11:19:51.684Z,4.90
2018-09-20T11:22:19.079Z,4.10
2018-09-20T11:24:48.038Z,4.67
2018-09-20T11:27:15.441Z,4.77
2018-09-20T11:29:43.137Z,4.80
2018-09-20T11:32:14.565Z,4.47
2018-09-20T11:34:42.061Z,4.40
2018-09-20T11:37:09.594Z,5.00
2018-09-20T11:39:37.022Z,4.70
2018-09-20T11:42:05.491Z,5.03
2018-09-20T11:44:32.975Z,5.37
2018-09-20T11:47:00.601Z,5.20
2018-09-20T11:49:28.096Z,5.53
2018-09-20T11:51:57.286Z,5.70
2018-09-20T11:54:25.636Z,5.97
2018-09-20T11:56:53.100Z,5.50
2018-09-20T11:59:20.469Z,5.73
2018-09-20T12:01:47.880Z,5.70
2018-09-20T12:04:15.287Z,5.77
2018-09-20T12:06:42.991Z,5.87
2018-09-20T12:09:10.784Z,5.60
2018-09-20T12:11:39.124Z,5.50
2018-09-20T12:14:06.784Z,5.33
2018-09-20T12:16:34.242Z,5.17
2018-09-20T12:19:01.760Z,5.43
2018-09-20T12:21:29.445Z,5.13
2018-09-20T12:23:57.025Z,5.23
2018-09-20T12:26:24.550Z,5.27
2018-09-20T12:28:52.894Z,5.77
2018-09-20T12:31:24.268Z,4.80
2018-09-20T12:33:51.635Z,5.10
2018-09-20T12:36:20.126Z,5.20
2018-09-20T12:38:47.785Z,5.43
2018-09-20T12:41:16.984Z,4.90
2018-09-20T12:43:44.737Z,4.87
2018-09-20T12:46:12.300Z,4.30
2018-09-20T12:48:39.786Z,5.03
2018-09-20T12:51:07.419Z,4.63
2018-09-20T12:53:35.478Z,5.00
2018-09-20T12:56:03.126Z,5.43
2018-09-20T12:58:36.498Z,4.60
2018-09-20T13:01:04.050Z,5.00
2018-09-20T13:03:31.475Z,5.20
2018-09-20T13:05:59.045Z,5.10
2018-09-20T13:08:26.660Z,5.20
2018-09-20T13:10:54.311Z,5.10
2018-09-20T13:13:23.957Z,5.10
2018-09-20T13:15:51.399Z,4.93
2018-09-20T13:18:18.909Z,5.07
2018-09-20T13:20:46.365Z,5.33
2018-09-20T13:23:13.766Z,5.40
2018-09-20T13:25:42.104Z,4.87
2018-09-20T13:28:10.710Z,5.63
2018-09-20T13:30:38.186Z,5.47
2018-09-20T13:33:10.959Z,4.83
2018-09-20T13:35:38.647Z,4.90
2018-09-20T13:38:06.299Z,4.70
2018-09-20T13:40:33.756Z,4.67
2018-09-20T13:43:01.255Z,5.17
2018-09-20T13:45:28.731Z,5.23
2018-09-20T13:47:56.113Z,4.60
2018-09-20T13:50:23.667Z,5.30
2018-09-20T13:52:51.520Z,5.60
2018-09-20T13:55:19.039Z,5.10
2018-09-20T13:57:48.587Z,4.80
2018-09-20T14:00:22.133Z,5.37
2018-09-20T14:02:50.200Z,4.70
2018-09-20T14:05:19.737Z,5.10
2018-09-20T14:07:47.638Z,5.27
2018-09-20T14:10:15.387Z,5.33
2018-09-20T14:12:49.030Z,5.10
2018-09-20T14:15:16.564Z,5.00
2018-09-20T14:17:44.135Z,4.60
2018-09-20T14:20:11.599Z,5.33
2018-09-20T14:22:39.039Z,4.60
2018-09-20T14:25:06.835Z,4.90
2018-09-20T14:27:34.225Z,4.90
2018-09-20T14:30:01.728Z,5.23
2018-09-20T14:32:30.580Z,4.53
2018-09-20T14:34:58.155Z,4.57
2018-09-20T14:37:25.585Z,4.60
2018-09-20T14:39:53.074Z,5.30
2018-09-20T14:42:20.803Z,4.67
2018-09-20T14:44:52.370Z,4.63
2018-09-20T14:47:20.122Z,5.97
2018-09-20T14:49:47.615Z,4.83
2018-09-20T14:52:15.178Z,4.90
2018-09-20T14:54:42.978Z,4.87
2018-09-20T14:57:11.753Z,4.77
2018-09-20T14:59:39.310Z,5.10
2018-09-20T15:02:07.994Z,5.63
2018-09-20T15:04:35.511Z,5.13
2018-09-20T15:07:03.517Z,5.70
2018-09-20T15:09:31.025Z,5.27
2018-09-20T15:11:58.658Z,5.50
2018-09-20T15:14:26.706Z,5.47
2018-09-20T15:16:54.318Z,5.87
2018-09-20T15:19:26.825Z,5.70
2018-09-20T15:21:54.322Z,5.40
2018-09-20T15:24:23.314Z,5.10
2018-09-20T15:26:50.794Z,5.30
2018-09-20T15:29:19.180Z,5.23
2018-09-20T15:31:47.457Z,5.27
2018-09-20T15:34:15.337Z,6.30
2018-09-20T15:36:42.992Z,5.70
2018-09-20T15:39:50.159Z,6.53
2018-09-20T15:42:17.762Z,5.93
2018-09-20T15:44:45.542Z,6.10
2018-09-20T15:47:13.176Z,6.00
2018-09-20T15:49:44.233Z,5.10
2018-09-20T15:52:11.821Z,5.30
2018-09-20T15:54:39.456Z,6.20
2018-09-20T15:57:07.871Z,6.13
2018-09-20T15:59:35.378Z,5.33
2018-09-20T16:02:03.500Z,5.53
2018-09-20T16:04:31.142Z,5.43
2018-09-20T16:06:58.725Z,5.87
2018-09-20T16:09:26.490Z,5.60
2018-09-20T16:11:53.928Z,6.07
2018-09-20T16:14:22.051Z,7.30
2018-09-20T16:16:50.387Z,6.20
2018-09-20T16:19:17.871Z,5.43
2018-09-20T16:21:45.278Z,6.20
2018-09-20T16:24:12.891Z,7.47
2018-09-20T16:26:40.619Z,7.60
2018-09-20T16:31:18.539Z,6.20
2018-09-20T16:33:55.129Z,6.57
2018-09-20T16:36:31.338Z,6.80
2018-09-20T16:39:00.931Z,6.73
2018-09-20T16:41:33.460Z,7.13
2018-09-20T16:44:03.783Z,6.53
2018-09-20T16:46:31.765Z,6.77
2018-09-20T16:48:59.949Z,7.80
2018-09-20T16:51:27.593Z,6.97
2018-09-20T16:53:55.041Z,7.27
2018-09-20T16:56:22.702Z,6.93
2018-09-20T16:58:51.399Z,7.20
2018-09-20T17:01:19.871Z,6.57
2018-09-20T17:03:48.363Z,6.60
2018-09-20T17:06:16.286Z,6.80
2018-09-20T17:08:43.848Z,5.77
2018-09-20T17:11:11.590Z,7.07
2018-09-20T17:13:39.532Z,6.23
2018-09-20T17:16:07.457Z,5.87
2018-09-20T17:18:35.031Z,5.87
2018-09-20T17:21:02.968Z,6.53
2018-09-20T17:23:30.460Z,5.93
2018-09-20T17:25:58.273Z,5.43
2018-09-20T17:28:25.916Z,6.67
2018-09-20T17:30:53.578Z,6.43
2018-09-20T17:33:21.121Z,6.63
2018-09-20T17:35:48.842Z,6.90
2018-09-20T17:38:16.668Z,6.80
2018-09-20T17:40:45.801Z,7.57
2018-09-20T17:43:16.358Z,6.53
2018-09-20T17:45:44.197Z,6.40
2018-09-20T17:48:11.836Z,6.60
2018-09-20T17:50:39.451Z,7.87
2018-09-20T17:53:07.305Z,8.10
2018-09-20T17:55:34.977Z,10.80
2018-09-20T17:58:02.643Z,8.17
2018-09-20T18:00:30.200Z,7.83
2018-09-20T18:02:57.681Z,8.23
2018-09-20T18:05:28.323Z,6.70
2018-09-20T18:07:55.700Z,6.97
2018-09-20T18:10:23.219Z,7.10
2018-09-20T18:12:50.783Z,6.63
2018-09-20T18:15:18.219Z,6.37
2018-09-20T18:17:45.872Z,7.63
2018-09-20T18:20:13.767Z,7.53
2018-09-20T18:22:41.291Z,7.67
2018-09-20T18:25:08.801Z,7.27
2018-09-20T18:27:36.328Z,6.53
2018-09-20T18:30:04.096Z,7.13
2018-09-20T18:32:31.531Z,6.83
2018-09-20T18:34:59.006Z,6.30
2018-09-20T18:37:26.548Z,7.20
2018-09-20T18:39:54.288Z,7.37
2018-09-20T18:42:21.750Z,7.60
2018-09-20T18:44:49.387Z,7.30
2018-09-20T18:47:17.150Z,7.80
2018-09-20T18:49:44.715Z,6.87
2018-09-20T18:52:12.042Z,6.77
2018-09-20T18:54:39.577Z,7.63
2018-09-20T18:57:07.905Z,6.20
2018-09-20T19:02:17.362Z,6.33
2018-09-20T19:04:51.867Z,7.20
2018-09-20T19:07:32.773Z,6.97
2018-09-20T19:10:01.688Z,7.60
2018-09-20T19:12:29.282Z,6.90
2018-09-20T19:14:59.354Z,7.43
2018-09-20T19:17:26.920Z,7.57
2018-09-20T19:19:54.465Z,7.77
2018-09-20T19:22:22.190Z,7.13
2018-09-20T19:24:49.849Z,6.90
2018-09-20T19:27:17.353Z,6.77
2018-09-20T19:32:40.962Z,8.10
2018-09-20T19:35:09.948Z,7.93
2018-09-20T19:37:37.754Z,9.07
2018-09-20T19:40:05.876Z,8.07
2018-09-20T19:42:33.495Z,8.17
2018-09-20T19:45:01.175Z,7.80
2018-09-20T19:47:28.737Z,7.70
2018-09-20T19:49:56.610Z,7.63
2018-09-20T19:52:37.478Z,7.17
2018-09-20T19:55:06.857Z,8.37
2018-09-20T19:57:37.429Z,7.47
2018-09-20T20:00:05.270Z,7.27
2018-09-20T20:02:37.181Z,8.87
2018-09-20T20:05:08.918Z,8.73
2018-09-20T20:07:39.412Z,8.90
2018-09-20T20:10:07.391Z,8.80
2018-09-20T20:12:36.132Z,8.60
2018-09-20T20:15:19.156Z,8.17
2018-09-20T20:17:54.670Z,9.00
2018-09-20T20:20:22.185Z,8.03
2018-09-20T20:22:49.651Z,9.07
2018-09-20T20:25:17.217Z,7.53
2018-09-20T20:27:44.627Z,8.20
2018-09-20T20:30:12.388Z,7.57
2018-09-20T20:32:39.965Z,7.43
2018-09-20T20:35:07.518Z,7.50
2018-09-20T20:37:35.209Z,7.60
2018-09-20T20:40:02.699Z,7.40
2018-09-20T20:42:30.116Z,7.47
2018-09-20T20:44:57.595Z,7.60
2018-09-20T20:47:25.183Z,8.47
2018-09-20T20:52:27.145Z,7.60
2018-09-20T20:54:54.955Z,8.13
2018-09-20T20:57:22.738Z,8.63
2018-09-20T20:59:50.409Z,8.80
2018-09-20T21:02:17.993Z,8.27
2018-09-20T21:04:45.659Z,7.87
2018-09-20T21:07:13.129Z,7.27
2018-09-20T21:09:40.689Z,7.57
2018-09-20T21:12:08.183Z,7.20
2018-09-20T21:14:35.882Z,7.60
2018-09-20T21:17:04.439Z,7.30
2018-09-20T21:19:32.013Z,9.23
2018-09-20T21:21:59.616Z,8.70
2018-09-20T21:24:27.095Z,7.50
2018-09-20T21:26:54.858Z,7.70
2018-09-20T21:29:22.547Z,9.30
2018-09-20T21:31:50.297Z,9.50
2018-09-20T21:34:17.778Z,8.33
2018-09-20T21:36:45.341Z,8.10
2018-09-20T21:39:13.045Z,7.90
2018-09-20T21:41:40.924Z,7.80
2018-09-20T21:44:09.332Z,7.90
2018-09-20T21:46:38.097Z,7.83
2018-09-20T21:49:05.605Z,8.13
2018-09-20T21:51:34.303Z,7.83
2018-09-20T21:54:02.851Z,7.70
2018-09-20T21:56:30.373Z,7.53
2018-09-20T21:58:57.974Z,6.80
2018-09-20T22:01:25.700Z,8.17
2018-09-20T22:03:53.354Z,7.70
2018-09-20T22:06:21.064Z,7.20
2018-09-20T22:08:48.782Z,8.37
2018-09-20T22:11:16.439Z,8.03
2018-09-20T22:13:43.966Z,7.53
2018-09-20T22:16:11.740Z,7.67
2018-09-20T22:18:39.147Z,8.03
2018-09-20T22:21:07.141Z,7.23
2018-09-20T22:23:34.604Z,7.73
2018-09-20T22:26:02.141Z,7.63
2018-09-20T22:28:29.739Z,8.20
2018-09-20T22:30:57.408Z,7.67
2018-09-20T22:33:24.802Z,7.10
2018-09-20T22:35:52.357Z,8.13
2018-09-20T22:38:19.811Z,7.37
2018-09-20T22:40:47.477Z,7.63
2018-09-20T22:43:14.848Z,8.37
2018-09-20T22:45:42.290Z,7.87
2018-09-20T22:48:10.376Z,8.00
2018-09-20T22:50:37.795Z,7.63
2018-09-20T22:53:06.147Z,7.80
2018-09-20T22:55:33.725Z,8.10
2018-09-20T22:58:01.296Z,9.30
2018-09-20T23:00:28.757Z,7.70
2018-09-20T23:02:56.175Z,8.13
2018-09-20T23:05:23.751Z,8.03
2018-09-20T23:07:51.741Z,8.90
2018-09-20T23:10:19.197Z,7.93
2018-09-20T23:12:46.814Z,8.10
2018-09-20T23:15:14.199Z,8.63
2018-09-20T23:17:41.665Z,9.40
2018-09-20T23:20:09.102Z,7.67
2018-09-20T23:22:36.763Z,7.97
2018-09-20T23:25:04.684Z,7.30
2018-09-20T23:27:32.166Z,8.23
2018-09-20T23:30:00.125Z,6.90
2018-09-20T23:32:27.648Z,7.97
2018-09-20T23:34:55.463Z,8.67
2018-09-20T23:37:23.011Z,8.27
2018-09-20T23:39:50.484Z,7.90
2018-09-20T23:42:17.919Z,8.47
2018-09-20T23:44:45.418Z,8.43
2018-09-20T23:47:12.885Z,8.80
2018-09-20T23:49:41.847Z,8.93
2018-09-20T23:52:09.297Z,8.33
2018-09-20T23:54:36.719Z,8.73
2018-09-20T23:57:04.280Z,8.83
2018-09-20T23:59:32.266Z,8.40
